Time;durP1;ratioP1;P1;durP2;ratioP2;P2;SDS_P1;SDS_P2;PMS_P1;PMS_P2;Temp;Humidity;BMP_temperature;BMP_pressure;BME280_temperature;BME280_humidity;BME280_pressure;Samples;Min_cycle;Max_cycle;Signal;HPM_P1;HPM_P2
2022/08/17 00:04:18;;;;;;;10.85;7.47;;;25.50;99.90;;;;;;10219114;29;20211;-95
2022/08/17 00:09:20;;;;;;;6.88;6.28;;;25.40;99.90;;;;;;10231502;28;20681;-95
2022/08/17 00:14:23;;;;;;;7.70;6.90;;;25.40;99.90;;;;;;10225719;29;20231;-94
2022/08/17 00:19:26;;;;;;;7.57;6.88;;;25.40;99.90;;;;;;10224239;29;20259;-95
2022/08/17 00:24:29;;;;;;;13.48;7.43;;;25.40;99.90;;;;;;10240002;28;20243;-95
2022/08/17 00:29:32;;;;;;;7.95;7.15;;;25.40;99.90;;;;;;10227776;28;20212;-95
2022/08/17 00:34:35;;;;;;;7.97;7.22;;;25.40;99.90;;;;;;10238008;29;20258;-95
2022/08/17 00:39:37;;;;;;;8.63;7.30;;;25.40;99.90;;;;;;10243400;28;20211;-94
2022/08/17 00:44:40;;;;;;;8.80;7.60;;;25.40;99.90;;;;;;10226362;29;20215;-94
2022/08/17 00:49:43;;;;;;;8.38;7.28;;;25.40;99.90;;;;;;10227637;29;20199;-95
2022/08/17 00:54:48;;;;;;;7.80;7.00;;;25.40;99.90;;;;;;10227838;29;20258;-94
2022/08/17 00:59:56;;;;;;;7.95;7.25;;;25.40;99.90;;;;;;10238198;29;20246;-94
2022/08/17 01:27:51;;;;;;;7.93;7.13;;;25.40;99.90;;;;;;11201684;23;20253;-94
2022/08/17 01:32:58;;;;;;;9.90;7.43;;;25.30;99.90;;;;;;10280740;29;20223;-95
2022/08/17 01:38:06;;;;;;;8.05;7.25;;;25.30;99.90;;;;;;10299235;28;20250;-96
2022/08/17 01:43:25;;;;;;;10.45;8.27;;;25.30;99.90;;;;;;10296531;28;20190;-96
2022/08/17 01:48:35;;;;;;;8.35;7.45;;;25.30;99.90;;;;;;10295546;28;20688;-95
2022/08/17 01:53:56;;;;;;;7.68;6.93;;;25.40;99.90;;;;;;10295487;28;20230;-96
2022/08/17 01:59:04;;;;;;;8.15;7.35;;;25.30;99.90;;;;;;10281015;29;20237;-96
2022/08/17 02:04:11;;;;;;;7.18;6.47;;;25.30;99.90;;;;;;10255530;29;20203;-95
2022/08/17 02:09:15;;;;;;;7.57;6.88;;;25.30;99.90;;;;;;10250315;28;20263;-96
2022/08/17 02:14:18;;;;;;;8.35;7.47;;;25.30;99.90;;;;;;10230279;29;20254;-95
2022/08/17 02:19:21;;;;;;;8.30;7.50;;;25.30;99.90;;;;;;10239452;28;20202;-96
2022/08/17 02:24:33;;;;;;;8.63;7.03;;;25.30;99.90;;;;;;10254525;28;20214;-95
2022/08/17 02:29:59;;;;;;;8.65;7.72;;;25.30;99.90;;;;;;10267844;28;20794;-95
2022/08/17 02:35:08;;;;;;;8.50;7.57;;;25.30;99.90;;;;;;10297536;28;20242;-96
2022/08/17 02:40:23;;;;;;;8.55;7.65;;;25.20;99.90;;;;;;10298885;28;20202;-95
2022/08/17 02:45:40;;;;;;;8.20;7.40;;;25.20;99.90;;;;;;10275339;28;20218;-95
2022/08/17 02:50:43;;;;;;;8.35;7.53;;;25.20;99.90;;;;;;10269149;28;20250;-96
2022/08/17 02:55:47;;;;;;;8.00;7.15;;;25.20;99.90;;;;;;10264454;28;20266;-96
2022/08/17 03:00:52;;;;;;;8.93;7.88;;;25.10;99.90;;;;;;10282328;28;20198;-95
2022/08/17 03:05:56;;;;;;;8.38;7.68;;;25.10;99.90;;;;;;10281839;28;20214;-95
2022/08/17 03:11:00;;;;;;;7.93;6.90;;;25.10;99.90;;;;;;10262790;28;20214;-96
2022/08/17 03:16:03;;;;;;;8.85;7.15;;;25.10;99.90;;;;;;10263718;28;20234;-95
2022/08/17 03:21:08;;;;;;;8.20;7.43;;;25.00;99.90;;;;;;10262230;28;20211;-95
2022/08/17 03:26:11;;;;;;;7.95;7.15;;;25.10;99.90;;;;;;10257823;28;20258;-95
2022/08/17 03:31:17;;;;;;;8.18;7.38;;;25.00;99.90;;;;;;10256696;29;20234;-95
2022/08/17 03:36:21;;;;;;;8.82;7.47;;;25.10;99.90;;;;;;10271034;28;20276;-95
2022/08/17 03:41:23;;;;;;;8.80;7.90;;;25.10;99.90;;;;;;10272214;28;20198;-96
2022/08/17 03:57:44;;;;;;;7.75;7.05;;;25.10;99.90;;;;;;10267436;29;20286;-96
2022/08/17 04:03:18;;;;;;;8.23;7.43;;;25.10;99.90;;;;;;10310857;28;20214;-95
2022/08/17 04:25:21;;;;;;;8.88;7.97;;;25.10;99.90;;;;;;10315444;23;20253;-95
2022/08/17 04:30:28;;;;;;;8.70;7.90;;;25.10;99.90;;;;;;10308474;28;20233;-95
2022/08/17 04:35:40;;;;;;;8.07;7.20;;;25.10;99.90;;;;;;10328481;28;20236;-94
2022/08/17 04:46:07;;;;;;;13.88;11.07;;;24.70;99.90;;;;;;10317897;28;20208;-94
2022/08/17 04:51:14;;;;;;;14.38;10.23;;;24.80;99.90;;;;;;10320604;28;20201;-93
2022/08/17 04:56:17;;;;;;;12.02;10.65;;;24.90;99.90;;;;;;10299797;28;20713;-95
2022/08/17 05:01:23;;;;;;;11.85;9.85;;;25.00;99.90;;;;;;10298166;28;20205;-94
2022/08/17 05:06:27;;;;;;;13.38;9.88;;;25.00;99.90;;;;;;10304218;28;20202;-94
2022/08/17 05:11:31;;;;;;;15.43;10.45;;;25.00;99.90;;;;;;10287848;28;20758;-94
2022/08/17 05:16:33;;;;;;;12.60;10.27;;;25.10;99.90;;;;;;10275909;28;20230;-95
2022/08/17 05:21:36;;;;;;;11.00;9.55;;;25.10;99.90;;;;;;10277512;28;20246;-95
2022/08/17 05:26:38;;;;;;;10.43;9.30;;;25.20;99.90;;;;;;10274593;28;20571;-96
2022/08/17 05:31:43;;;;;;;15.63;10.15;;;25.20;99.90;;;;;;10299857;28;20233;-92
2022/08/17 05:36:46;;;;;;;17.90;10.55;;;25.20;99.90;;;;;;10301916;28;20229;-95
2022/08/17 05:41:49;;;;;;;11.00;9.35;;;25.30;99.90;;;;;;10306201;28;20252;-96
2022/08/17 05:46:53;;;;;;;10.38;9.32;;;25.30;99.90;;;;;;10288445;28;20683;-95
2022/08/17 05:52:13;;;;;;;12.15;10.02;;;25.40;99.90;;;;;;10299594;28;20233;-95
2022/08/17 05:58:09;;;;;;;11.40;8.77;;;25.40;99.90;;;;;;10299886;28;20237;-94
2022/08/17 06:03:25;;;;;;;10.80;9.13;;;25.40;99.90;;;;;;10280122;28;20237;-95
2022/08/17 06:08:39;;;;;;;10.48;9.30;;;25.40;99.90;;;;;;10281467;28;20675;-96
2022/08/17 06:14:14;;;;;;;9.27;8.38;;;25.50;99.90;;;;;;10278149;28;20490;-96
2022/08/17 06:19:46;;;;;;;11.40;9.00;;;25.50;99.90;;;;;;10296174;28;20202;-95
2022/08/17 06:24:56;;;;;;;9.70;8.70;;;25.50;99.90;;;;;;10291052;28;20229;-95
2022/08/17 06:30:11;;;;;;;9.27;8.38;;;25.50;99.90;;;;;;10278946;28;20205;-94
2022/08/17 06:35:43;;;;;;;9.93;8.95;;;25.50;99.90;;;;;;10302107;28;20237;-95
2022/08/17 06:41:20;;;;;;;10.77;9.13;;;25.50;99.90;;;;;;10313513;28;20210;-96
2022/08/17 06:46:24;;;;;;;11.38;9.30;;;25.60;99.90;;;;;;10279703;28;20213;-95
2022/08/17 06:51:38;;;;;;;9.82;8.85;;;25.70;99.90;;;;;;10274913;28;20249;-95
2022/08/17 06:56:52;;;;;;;10.32;8.55;;;25.70;99.90;;;;;;10277179;28;20237;-95
2022/08/17 07:35:20;;;;;;;26.13;14.98;;;26.20;99.90;;;;;;12214583;23;20257;-94
2022/08/17 07:40:46;;;;;;;9.07;8.18;;;26.20;99.90;;;;;;10270118;28;20198;-95
2022/08/17 07:52:31;;;;;;;15.43;11.35;;;26.30;99.90;;;;;;10368542;28;20196;-96
2022/08/17 07:58:06;;;;;;;8.85;7.95;;;26.40;99.90;;;;;;10337356;28;20253;-96
2022/08/17 08:04:05;;;;;;;9.63;8.60;;;26.50;99.90;;;;;;10322730;28;20263;-96
2022/08/17 08:21:54;;;;;;;20.55;10.85;;;27.00;99.90;;;;;;10309775;23;20729;-81
2022/08/17 08:27:09;;;;;;;11.35;10.15;;;27.20;99.90;;;;;;10312544;28;20612;-82
2022/08/17 08:32:47;;;;;;;18.35;12.63;;;27.40;99.90;;;;;;10319005;28;20229;-82
2022/08/17 08:37:51;;;;;;;16.10;11.95;;;27.40;99.90;;;;;;10322814;28;20251;-82
2022/08/17 08:43:34;;;;;;;14.25;10.90;;;27.90;99.90;;;;;;10330872;28;20228;-84
2022/08/17 08:49:08;;;;;;;11.98;10.10;;;28.00;99.90;;;;;;10346739;28;20654;-84
2022/08/17 08:54:37;;;;;;;16.02;10.40;;;28.20;99.90;;;;;;10331832;28;20241;-83
2022/08/17 08:59:55;;;;;;;12.60;10.70;;;28.50;99.90;;;;;;10315728;28;20309;-83
2022/08/17 09:05:12;;;;;;;8.77;7.88;;;28.40;99.90;;;;;;10323705;28;20232;-80
2022/08/17 09:10:38;;;;;;;9.82;8.00;;;28.20;99.90;;;;;;10339939;28;20231;-81
2022/08/17 09:15:47;;;;;;;10.88;8.77;;;28.30;99.90;;;;;;10356482;28;20249;-83
2022/08/17 09:20:58;;;;;;;13.48;10.32;;;28.30;99.90;;;;;;10348159;28;20248;-83
2022/08/17 09:26:10;;;;;;;11.20;9.65;;;28.80;99.90;;;;;;10339194;28;20225;-83
2022/08/17 09:31:22;;;;;;;18.30;9.95;;;29.10;99.90;;;;;;10346519;28;20267;-83
2022/08/17 09:36:36;;;;;;;10.02;9.00;;;29.40;99.90;;;;;;10331392;28;20306;-82
2022/08/17 09:41:44;;;;;;;12.98;8.32;;;29.30;99.90;;;;;;10332755;28;20228;-80
2022/08/17 09:47:00;;;;;;;8.65;7.85;;;29.50;99.90;;;;;;10328183;28;20228;-80
2022/08/17 09:52:20;;;;;;;8.95;8.02;;;29.80;99.90;;;;;;10315569;28;20235;-81
2022/08/17 09:57:40;;;;;;;11.10;8.45;;;;;;;;;;10332697;28;20240;-81
2022/08/17 10:02:53;;;;;;;13.52;9.73;;;31.20;99.90;;;;;;10330403;28;20236;-81
2022/08/17 10:08:08;;;;;;;9.43;8.48;;;30.10;99.90;;;;;;10331099;28;20232;-81
2022/08/17 10:13:18;;;;;;;9.02;7.68;;;30.10;99.90;;;;;;10330878;28;20251;-80
2022/08/17 10:18:34;;;;;;;12.40;10.48;;;30.60;99.90;;;;;;10328977;28;20264;-80
2022/08/17 10:29:11;;;;;;;13.48;8.45;;;30.30;99.90;;;;;;10331303;28;20621;-81
2022/08/17 10:34:34;;;;;;;9.57;7.38;;;30.70;98.60;;;;;;10330722;28;20227;-81
2022/08/17 10:39:58;;;;;;;9.05;7.97;;;30.80;96.90;;;;;;10329451;28;20232;-83
2022/08/17 10:45:25;;;;;;;10.27;8.20;;;29.80;97.70;;;;;;10330325;28;20200;-81
2022/08/17 10:50:48;;;;;;;9.00;7.80;;;29.90;98.80;;;;;;10330452;28;20630;-81
2022/08/17 10:56:12;;;;;;;11.75;8.38;;;30.10;98.60;;;;;;10323006;28;20244;-81
2022/08/17 11:01:16;;;;;;;11.48;8.15;;;29.80;97.80;;;;;;10328100;28;20748;-80
2022/08/17 11:06:41;;;;;;;9.38;8.43;;;30.40;98.60;;;;;;10323577;28;20287;-82
2022/08/17 11:12:14;;;;;;;14.00;9.43;;;30.50;98.10;;;;;;10319417;28;20655;-82
2022/08/17 11:17:23;;;;;;;10.00;9.00;;;30.70;99.10;;;;;;10330547;28;20664;-81
2022/08/17 11:22:59;;;;;;;11.75;8.43;;;30.30;99.40;;;;;;10329259;28;20228;-80
2022/08/17 11:28:18;;;;;;;10.82;8.15;;;31.00;97.50;;;;;;10328117;28;20673;-81
2022/08/17 11:33:33;;;;;;;8.32;7.35;;;30.50;99.90;;;;;;10327922;28;20630;-80
2022/08/17 11:39:12;;;;;;;9.65;8.75;;;30.50;97.10;;;;;;10290513;28;20304;-80
2022/08/17 11:44:58;;;;;;;12.68;9.07;;;30.20;99.60;;;;;;10361855;28;20247;-80
2022/08/17 11:55:51;;;;;;;9.20;8.32;;;30.30;96.40;;;;;;10345620;28;20325;-80
2022/08/17 12:00:55;;;;;;;9.57;8.38;;;30.20;99.90;;;;;;10363291;28;20351;-80
2022/08/17 12:06:21;;;;;;;10.02;8.55;;;30.00;99.90;;;;;;10342850;28;20628;-81
2022/08/17 12:11:41;;;;;;;8.65;7.75;;;29.80;99.90;;;;;;10364534;28;20850;-80
2022/08/17 12:17:07;;;;;;;8.63;7.72;;;29.70;99.50;;;;;;10351157;28;20860;-80
2022/08/17 12:22:09;;;;;;;11.15;6.40;;;29.60;98.30;;;;;;10325405;28;20249;-80
2022/08/17 12:27:21;;;;;;;11.70;7.05;;;29.60;96.20;;;;;;10324380;28;20235;-81
2022/08/17 12:32:48;;;;;;;10.23;8.20;;;29.90;95.30;;;;;;10326480;28;20209;-81
2022/08/17 12:37:51;;;;;;;12.45;8.73;;;30.20;96.20;;;;;;10326477;28;20775;-81
2022/08/17 12:42:54;;;;;;;12.27;7.18;;;30.20;94.60;;;;;;10331718;28;20236;-81
2022/08/17 12:48:07;;;;;;;7.70;7.00;;;30.70;93.50;;;;;;10336065;28;20684;-81
2022/08/17 12:53:16;;;;;;;10.02;7.75;;;30.40;94.30;;;;;;10335485;28;20280;-81
2022/08/17 12:58:25;;;;;;;8.88;7.53;;;30.50;95.00;;;;;;10335274;28;20244;-81
2022/08/17 13:03:36;;;;;;;8.10;6.88;;;30.70;94.80;;;;;;10333890;28;20256;-81
2022/08/17 13:08:46;;;;;;;7.97;7.15;;;31.20;94.20;;;;;;10333495;28;20244;-81
2022/08/17 13:13:53;;;;;;;10.15;9.15;;;31.50;92.70;;;;;;10334578;28;20240;-81
2022/08/17 13:19:13;;;;;;;8.68;7.78;;;31.00;95.60;;;;;;10334434;28;20322;-81
2022/08/17 13:24:28;;;;;;;7.90;6.78;;;31.30;94.00;;;;;;10333138;28;20216;-81
2022/08/17 13:29:47;;;;;;;11.30;6.90;;;31.10;92.80;;;;;;10333163;28;20228;-81
2022/08/17 13:34:56;;;;;;;9.95;8.43;;;31.20;92.20;;;;;;10333571;28;20682;-81
2022/08/17 13:40:16;;;;;;;8.63;7.75;;;31.30;91.40;;;;;;10334227;28;20220;-81
2022/08/17 13:45:31;;;;;;;10.20;9.05;;;;;;;;;;10333791;28;20259;-81
2022/08/17 13:50:48;;;;;;;7.57;6.88;;;31.80;97.20;;;;;;10333488;28;20236;-81
2022/08/17 13:56:08;;;;;;;9.02;8.23;;;31.60;96.70;;;;;;10331558;28;20330;-81
2022/08/17 14:01:45;;;;;;;7.28;6.55;;;30.60;99.70;;;;;;10331684;28;20224;-81
2022/08/17 14:07:23;;;;;;;9.02;7.18;;;30.80;95.90;;;;;;10332674;28;20267;-81
2022/08/17 14:12:27;;;;;;;12.02;6.95;;;31.10;94.30;;;;;;10332219;28;20233;-81
2022/08/17 14:17:30;;;;;;;9.90;8.57;;;31.80;94.60;;;;;;10331745;28;20319;-81
2022/08/17 14:22:44;;;;;;;8.57;7.78;;;31.90;96.50;;;;;;10330933;28;20208;-81
2022/08/17 14:27:48;;;;;;;8.38;7.28;;;31.60;96.70;;;;;;10331795;28;20259;-81
2022/08/17 14:32:56;;;;;;;7.25;6.55;;;31.70;97.20;;;;;;10331908;28;20205;-81
2022/08/17 14:38:00;;;;;;;10.75;7.10;;;32.00;93.60;;;;;;10330143;28;21058;-81
2022/08/17 14:43:03;;;;;;;9.82;8.18;;;31.10;95.30;;;;;;10331525;28;20732;-81
2022/08/17 14:48:08;;;;;;;9.65;8.70;;;31.00;97.60;;;;;;10330019;28;20279;-81
2022/08/17 14:53:14;;;;;;;10.80;7.07;;;31.30;96.00;;;;;;10329668;28;20214;-81
2022/08/17 14:58:18;;;;;;;14.60;8.20;;;31.50;94.70;;;;;;10329143;28;20260;-81
2022/08/17 15:03:22;;;;;;;9.25;7.25;;;31.10;98.00;;;;;;10329619;28;20232;-81
2022/08/17 15:08:24;;;;;;;11.32;8.23;;;31.00;96.50;;;;;;10329787;28;20236;-81
2022/08/17 15:13:28;;;;;;;11.70;7.47;;;31.10;96.70;;;;;;10312555;28;20212;-82
2022/08/17 15:18:30;;;;;;;9.95;7.97;;;31.00;96.00;;;;;;10328124;28;20264;-81
2022/08/17 15:23:33;;;;;;;7.80;6.72;;;30.60;96.70;;;;;;10328115;28;20295;-81
2022/08/17 15:28:36;;;;;;;11.50;7.22;;;30.60;97.10;;;;;;10328526;28;20236;-82
2022/08/17 15:33:39;;;;;;;7.75;6.70;;;30.50;96.40;;;;;;10328065;28;20267;-82
2022/08/17 15:38:42;;;;;;;7.90;7.15;;;30.50;97.80;;;;;;10328081;28;20252;-82
2022/08/17 15:43:48;;;;;;;9.07;8.18;;;30.40;97.80;;;;;;10328330;28;20232;-82
2022/08/17 15:48:56;;;;;;;13.27;6.80;;;30.30;99.70;;;;;;10328127;28;20281;-81
2022/08/17 15:54:05;;;;;;;14.65;7.03;;;30.40;97.50;;;;;;10327494;28;20209;-81
2022/08/17 15:59:23;;;;;;;21.58;7.05;;;30.60;97.10;;;;;;10328718;28;20249;-81
2022/08/17 16:04:26;;;;;;;8.90;7.78;;;30.50;98.40;;;;;;10327448;28;20263;-81
2022/08/17 16:09:32;;;;;;;14.00;6.53;;;30.30;97.90;;;;;;10327060;28;20273;-81
2022/08/17 16:14:35;;;;;;;10.63;6.40;;;30.20;97.50;;;;;;10327858;28;20685;-81
2022/08/17 16:19:39;;;;;;;7.25;6.50;;;30.10;98.10;;;;;;10327957;28;20311;-82
2022/08/17 16:24:44;;;;;;;9.73;7.07;;;29.90;98.20;;;;;;10326941;28;20240;-81
2022/08/17 16:29:59;;;;;;;8.25;5.97;;;29.80;97.80;;;;;;10327292;28;20240;-81
2022/08/17 16:35:09;;;;;;;7.40;6.43;;;29.50;99.70;;;;;;10326563;28;20299;-81
2022/08/17 16:40:14;;;;;;;7.35;6.22;;;29.20;99.70;;;;;;10326580;28;20659;-82
2022/08/17 16:45:38;;;;;;;11.43;6.80;;;29.00;99.70;;;;;;10326697;28;20232;-81
2022/08/17 16:50:42;;;;;;;13.85;7.80;;;28.90;99.90;;;;;;10328096;28;20302;-81
2022/08/17 16:56:06;;;;;;;20.10;8.77;;;28.80;99.90;;;;;;10327477;28;20581;-81
2022/08/17 17:01:08;;;;;;;29.92;8.45;;;28.70;99.90;;;;;;10326597;28;20213;-81
2022/08/17 17:06:36;;;;;;;29.33;7.28;;;28.60;99.90;;;;;;10326656;28;20287;-82
2022/08/17 17:11:46;;;;;;;22.98;8.82;;;28.60;99.90;;;;;;10326284;28;20297;-81
2022/08/17 17:17:11;;;;;;;20.42;7.72;;;28.40;99.90;;;;;;10322803;28;20667;-82
2022/08/17 17:22:20;;;;;;;30.52;8.70;;;28.00;99.90;;;;;;10269446;23;20261;-82
2022/08/17 17:27:53;;;;;;;25.25;9.27;;;28.20;99.90;;;;;;10255486;28;20273;-83
2022/08/17 17:33:03;;;;;;;14.02;7.32;;;28.30;99.90;;;;;;10307234;23;20269;-82
2022/08/17 17:38:14;;;;;;;13.27;8.23;;;28.50;99.90;;;;;;10296757;28;20654;-82
2022/08/17 17:43:20;;;;;;;16.83;8.52;;;28.70;99.90;;;;;;10296184;28;20213;-83
2022/08/17 17:48:40;;;;;;;24.60;8.95;;;28.70;99.90;;;;;;10294284;28;20237;-82
2022/08/17 17:54:11;;;;;;;18.63;9.02;;;28.60;99.90;;;;;;10297891;28;20482;-83
2022/08/17 17:59:27;;;;;;;18.38;8.68;;;28.70;99.90;;;;;;10295963;28;20593;-82
2022/08/17 18:04:31;;;;;;;17.00;9.35;;;28.70;99.90;;;;;;10295850;23;20265;-83
2022/08/17 18:09:55;;;;;;;14.15;8.45;;;28.70;99.90;;;;;;10269116;28;20207;-83
2022/08/17 18:15:10;;;;;;;15.15;8.05;;;28.70;99.90;;;;;;10248650;28;20219;-82
2022/08/17 18:20:18;;;;;;;12.70;7.75;;;28.80;99.90;;;;;;9919037;28;9999710;-82
2022/08/17 18:25:50;;;;;;;11.93;8.07;;;28.80;99.90;;;;;;10245112;28;20249;-82
2022/08/17 18:31:24;;;;;;;14.80;7.18;;;28.90;99.90;;;;;;10246043;29;20289;-82
2022/08/17 18:36:31;;;;;;;16.00;6.82;;;28.90;99.90;;;;;;10239573;28;20253;-83
2022/08/17 18:41:44;;;;;;;11.63;8.35;;;28.80;99.90;;;;;;10247049;28;20234;-82
2022/08/17 18:47:03;;;;;;;16.48;7.15;;;28.80;99.90;;;;;;10262414;28;20249;-82
2022/08/17 18:52:08;;;;;;;8.25;6.55;;;28.80;99.90;;;;;;10228484;29;20269;-82
2022/08/17 18:57:28;;;;;;;10.95;7.07;;;28.70;99.90;;;;;;10246326;28;20254;-85
2022/08/17 19:02:31;;;;;;;10.32;7.05;;;28.70;99.90;;;;;;10262154;28;20234;-83
2022/08/17 19:07:47;;;;;;;9.57;7.40;;;28.70;99.90;;;;;;10260928;28;20249;-83
2022/08/17 19:12:56;;;;;;;9.82;7.32;;;28.70;99.90;;;;;;10245998;29;20245;-83
2022/08/17 19:18:11;;;;;;;7.80;7.10;;;28.60;99.90;;;;;;10244505;29;20261;-83
2022/08/17 19:23:28;;;;;;;10.65;7.65;;;28.60;99.90;;;;;;10248598;29;20222;-84
2022/08/17 19:28:40;;;;;;;9.43;6.70;;;28.50;99.90;;;;;;10275190;28;20226;-85
2022/08/17 19:33:43;;;;;;;7.75;6.72;;;28.50;99.90;;;;;;10245979;29;20284;-84
2022/08/17 19:39:12;;;;;;;9.02;6.75;;;28.50;99.90;;;;;;10247526;29;20673;-84
2022/08/17 19:44:50;;;;;;;8.50;6.15;;;28.50;99.90;;;;;;10246362;29;20214;-83
2022/08/17 19:50:30;;;;;;;7.13;6.22;;;28.50;99.90;;;;;;10247855;28;20242;-85
2022/08/17 19:55:53;;;;;;;7.78;6.97;;;28.40;99.90;;;;;;10247440;29;20284;-84
2022/08/17 20:00:56;;;;;;;7.75;6.95;;;28.40;99.90;;;;;;10247922;28;20690;-84
2022/08/17 20:06:00;;;;;;;7.95;7.00;;;28.40;99.90;;;;;;10235079;28;20250;-85
2022/08/17 20:11:21;;;;;;;9.40;7.00;;;28.30;99.90;;;;;;10246482;28;20226;-83
2022/08/17 20:16:24;;;;;;;7.78;6.72;;;28.30;99.90;;;;;;10247779;29;20261;-83
2022/08/17 20:21:50;;;;;;;8.90;7.50;;;28.20;99.90;;;;;;10245631;28;20308;-83
2022/08/17 20:26:56;;;;;;;8.55;6.57;;;28.20;99.90;;;;;;10243967;28;20237;-82
2022/08/17 20:32:00;;;;;;;8.05;7.13;;;28.20;99.90;;;;;;10242862;28;20262;-82
2022/08/17 20:37:23;;;;;;;7.60;6.80;;;28.20;99.90;;;;;;10247393;28;20308;-84
2022/08/17 20:42:26;;;;;;;7.75;6.85;;;28.10;99.90;;;;;;10253813;28;20206;-84
2022/08/17 20:47:38;;;;;;;7.38;6.50;;;28.10;99.90;;;;;;10246563;29;20242;-83
2022/08/17 20:53:05;;;;;;;10.00;7.43;;;28.10;99.90;;;;;;10247433;28;20305;-85
2022/08/17 20:58:14;;;;;;;8.32;7.45;;;28.00;99.90;;;;;;10246146;28;20308;-84
2022/08/17 21:03:22;;;;;;;9.02;7.28;;;28.00;99.90;;;;;;10248350;28;20710;-83
2022/08/17 21:08:28;;;;;;;7.55;6.85;;;27.90;99.90;;;;;;10249992;28;20261;-84
2022/08/17 21:13:48;;;;;;;7.75;6.78;;;27.90;99.90;;;;;;10253150;28;20600;-84
2022/08/17 21:19:07;;;;;;;7.60;6.72;;;27.90;99.90;;;;;;10249817;28;20706;-84
2022/08/17 21:24:25;;;;;;;8.73;7.28;;;27.90;99.90;;;;;;10259687;28;20637;-83
2022/08/17 21:29:29;;;;;;;6.95;6.25;;;27.80;99.90;;;;;;10251206;28;20791;-83
2022/08/17 21:34:43;;;;;;;8.10;7.30;;;27.80;99.90;;;;;;10252896;29;20634;-83
2022/08/17 21:39:59;;;;;;;8.43;6.88;;;27.70;99.90;;;;;;10250674;28;20317;-83
2022/08/17 21:45:21;;;;;;;9.23;7.00;;;27.70;99.90;;;;;;10252484;29;20281;-83
2022/08/17 21:50:23;;;;;;;7.55;6.85;;;27.70;99.90;;;;;;10252287;28;20908;-83
2022/08/17 21:55:29;;;;;;;7.53;6.75;;;27.70;99.90;;;;;;10250097;28;20242;-84
2022/08/17 22:00:32;;;;;;;8.15;7.45;;;27.60;99.90;;;;;;10251671;29;20254;-83
2022/08/17 22:05:38;;;;;;;8.80;6.53;;;27.60;99.90;;;;;;10265786;28;20250;-84
2022/08/17 22:10:43;;;;;;;7.65;6.32;;;27.60;99.90;;;;;;10249798;28;20238;-84
2022/08/17 22:15:49;;;;;;;8.13;6.20;;;27.60;99.90;;;;;;10249663;28;20301;-84
2022/08/17 22:20:54;;;;;;;7.20;6.60;;;27.60;99.90;;;;;;10265287;28;20718;-84
2022/08/17 22:25:59;;;;;;;7.90;7.10;;;27.50;99.90;;;;;;10252681;28;20617;-84
2022/08/17 22:31:03;;;;;;;8.70;7.60;;;27.50;99.90;;;;;;10249766;28;20634;-84
2022/08/17 22:36:11;;;;;;;8.07;7.30;;;27.50;99.90;;;;;;10250847;29;20666;-84
2022/08/17 22:41:58;;;;;;;7.68;6.97;;;27.50;99.90;;;;;;10228853;28;20249;-83
2022/08/17 22:47:17;;;;;;;6.65;5.97;;;27.40;99.90;;;;;;10243844;28;20253;-83
2022/08/17 23:03:50;;;;;;;7.10;6.40;;;27.30;99.90;;;;;;10227553;29;20301;-82
2022/08/17 23:08:55;;;;;;;7.65;6.85;;;27.30;99.90;;;;;;10242851;28;20257;-82
2022/08/17 23:13:58;;;;;;;8.05;7.25;;;27.30;99.90;;;;;;10228258;29;20329;-82
2022/08/17 23:19:00;;;;;;;7.80;7.00;;;27.30;99.90;;;;;;10248895;28;20697;-82
2022/08/17 23:24:07;;;;;;;8.15;7.30;;;27.30;99.90;;;;;;10248166;28;20206;-82
2022/08/17 23:29:10;;;;;;;7.95;7.22;;;27.30;99.90;;;;;;10246190;29;20226;-82
2022/08/17 23:34:13;;;;;;;8.57;7.70;;;27.20;99.90;;;;;;10228972;28;20238;-83
2022/08/17 23:39:17;;;;;;;7.53;6.82;;;27.20;99.90;;;;;;10247114;28;20249;-82
2022/08/17 23:44:30;;;;;;;7.63;6.93;;;27.20;99.90;;;;;;10247561;29;20234;-82
2022/08/17 23:49:35;;;;;;;8.85;7.95;;;27.20;99.90;;;;;;10248257;28;20237;-82
2022/08/17 23:54:45;;;;;;;7.15;6.45;;;27.10;99.90;;;;;;10246473;28;20237;-82
2022/08/17 23:59:47;;;;;;;7.90;7.18;;;27.10;99.90;;;;;;10244176;28;20261;-82
